sensor_id;sensor_type;location;lat;lon;timestamp;P1;durP1;ratioP1;P2;durP2;ratioP2
20084;SDS011;10202;48.474;9.138;2022-12-07T00:01:41;13.00;;;6.60;;
20084;SDS011;10202;48.474;9.138;2022-12-07T00:04:10;19.33;;;7.47;;
20084;SDS011;10202;48.474;9.138;2022-12-07T00:06:41;14.73;;;6.60;;
20084;SDS011;10202;48.474;9.138;2022-12-07T00:09:14;10.93;;;5.93;;
20084;SDS011;10202;48.474;9.138;2022-12-07T00:11:43;11.47;;;5.80;;
20084;SDS011;10202;48.474;9.138;2022-12-07T00:14:18;9.97;;;5.90;;
20084;SDS011;10202;48.474;9.138;2022-12-07T00:16:48;9.30;;;5.97;;
20084;SDS011;10202;48.474;9.138;2022-12-07T00:19:16;9.50;;;5.90;;
20084;SDS011;10202;48.474;9.138;2022-12-07T00:21:47;8.63;;;5.60;;
20084;SDS011;10202;48.474;9.138;2022-12-07T00:24:14;7.43;;;5.50;;
20084;SDS011;10202;48.474;9.138;2022-12-07T00:26:41;10.30;;;5.63;;
20084;SDS011;10202;48.474;9.138;2022-12-07T00:29:09;9.07;;;6.07;;
20084;SDS011;10202;48.474;9.138;2022-12-07T00:31:42;8.43;;;5.60;;
20084;SDS011;10202;48.474;9.138;2022-12-07T00:34:12;8.77;;;5.47;;
20084;SDS011;10202;48.474;9.138;2022-12-07T00:36:45;10.07;;;5.57;;
20084;SDS011;10202;48.474;9.138;2022-12-07T00:39:11;10.10;;;6.03;;
20084;SDS011;10202;48.474;9.138;2022-12-07T00:41:42;9.87;;;6.37;;
20084;SDS011;10202;48.474;9.138;2022-12-07T00:44:10;11.20;;;6.23;;
20084;SDS011;10202;48.474;9.138;2022-12-07T00:46:38;8.10;;;5.63;;
20084;SDS011;10202;48.474;9.138;2022-12-07T00:49:05;8.33;;;5.33;;
20084;SDS011;10202;48.474;9.138;2022-12-07T00:51:33;6.57;;;5.20;;
20084;SDS011;10202;48.474;9.138;2022-12-07T00:53:59;10.23;;;5.90;;
20084;SDS011;10202;48.474;9.138;2022-12-07T00:56:35;9.10;;;5.43;;
20084;SDS011;10202;48.474;9.138;2022-12-07T00:59:05;8.50;;;5.40;;
20084;SDS011;10202;48.474;9.138;2022-12-07T01:01:32;9.13;;;4.97;;
20084;SDS011;10202;48.474;9.138;2022-12-07T01:03:59;8.77;;;5.07;;
20084;SDS011;10202;48.474;9.138;2022-12-07T01:06:30;6.87;;;4.80;;
20084;SDS011;10202;48.474;9.138;2022-12-07T01:09:01;7.67;;;5.30;;
20084;SDS011;10202;48.474;9.138;2022-12-07T01:11:29;6.47;;;4.67;;
20084;SDS011;10202;48.474;9.138;2022-12-07T01:13:58;7.37;;;5.50;;
20084;SDS011;10202;48.474;9.138;2022-12-07T01:16:29;5.93;;;4.73;;
20084;SDS011;10202;48.474;9.138;2022-12-07T01:19:03;6.70;;;5.23;;
20084;SDS011;10202;48.474;9.138;2022-12-07T01:21:34;9.90;;;5.00;;
20084;SDS011;10202;48.474;9.138;2022-12-07T01:24:06;8.27;;;5.17;;
20084;SDS011;10202;48.474;9.138;2022-12-07T01:26:35;7.27;;;4.90;;
20084;SDS011;10202;48.474;9.138;2022-12-07T01:29:02;9.73;;;5.50;;
20084;SDS011;10202;48.474;9.138;2022-12-07T01:31:35;8.77;;;5.07;;
20084;SDS011;10202;48.474;9.138;2022-12-07T01:34:00;8.30;;;5.33;;
20084;SDS011;10202;48.474;9.138;2022-12-07T01:36:32;7.10;;;5.17;;
20084;SDS011;10202;48.474;9.138;2022-12-07T01:39:03;7.27;;;4.90;;
20084;SDS011;10202;48.474;9.138;2022-12-07T01:41:33;7.77;;;4.80;;
20084;SDS011;10202;48.474;9.138;2022-12-07T01:44:26;6.47;;;4.73;;
20084;SDS011;10202;48.474;9.138;2022-12-07T01:46:58;6.57;;;4.77;;
20084;SDS011;10202;48.474;9.138;2022-12-07T01:49:32;6.50;;;4.87;;
20084;SDS011;10202;48.474;9.138;2022-12-07T01:52:17;8.23;;;5.20;;
20084;SDS011;10202;48.474;9.138;2022-12-07T01:54:47;7.93;;;4.93;;
20084;SDS011;10202;48.474;9.138;2022-12-07T01:57:18;6.93;;;4.93;;
20084;SDS011;10202;48.474;9.138;2022-12-07T01:59:46;7.13;;;4.97;;
20084;SDS011;10202;48.474;9.138;2022-12-07T02:02:20;7.87;;;5.00;;
20084;SDS011;10202;48.474;9.138;2022-12-07T02:04:56;7.03;;;3.93;;
20084;SDS011;10202;48.474;9.138;2022-12-07T02:07:22;8.60;;;4.87;;
20084;SDS011;10202;48.474;9.138;2022-12-07T02:09:51;6.63;;;4.83;;
20084;SDS011;10202;48.474;9.138;2022-12-07T02:12:16;6.77;;;4.43;;
20084;SDS011;10202;48.474;9.138;2022-12-07T02:14:45;6.10;;;4.40;;
20084;SDS011;10202;48.474;9.138;2022-12-07T02:17:28;5.93;;;4.27;;
20084;SDS011;10202;48.474;9.138;2022-12-07T02:25:38;6.73;;;4.53;;
20084;SDS011;10202;48.474;9.138;2022-12-07T02:28:37;6.93;;;4.50;;
20084;SDS011;10202;48.474;9.138;2022-12-07T02:31:21;8.07;;;4.57;;
20084;SDS011;10202;48.474;9.138;2022-12-07T02:33:57;6.43;;;4.60;;
20084;SDS011;10202;48.474;9.138;2022-12-07T02:36:40;6.43;;;4.70;;
20084;SDS011;10202;48.474;9.138;2022-12-07T02:39:20;6.67;;;4.63;;
20084;SDS011;10202;48.474;9.138;2022-12-07T02:41:52;6.03;;;4.37;;
20084;SDS011;10202;48.474;9.138;2022-12-07T02:44:26;7.43;;;4.80;;
20084;SDS011;10202;48.474;9.138;2022-12-07T02:46:56;6.73;;;4.80;;
20084;SDS011;10202;48.474;9.138;2022-12-07T02:49:27;7.90;;;4.80;;
20084;SDS011;10202;48.474;9.138;2022-12-07T02:51:55;7.80;;;4.97;;
20084;SDS011;10202;48.474;9.138;2022-12-07T02:54:26;4.93;;;4.00;;
20084;SDS011;10202;48.474;9.138;2022-12-07T03:05:36;5.83;;;4.60;;
20084;SDS011;10202;48.474;9.138;2022-12-07T03:11:50;9.20;;;4.90;;
20084;SDS011;10202;48.474;9.138;2022-12-07T03:14:24;6.97;;;4.83;;
20084;SDS011;10202;48.474;9.138;2022-12-07T03:17:02;7.10;;;4.60;;
20084;SDS011;10202;48.474;9.138;2022-12-07T03:19:35;7.47;;;4.70;;
20084;SDS011;10202;48.474;9.138;2022-12-07T03:22:07;8.97;;;4.90;;
20084;SDS011;10202;48.474;9.138;2022-12-07T03:24:57;6.77;;;5.20;;
20084;SDS011;10202;48.474;9.138;2022-12-07T03:27:26;8.38;;;5.85;;
20084;SDS011;10202;48.474;9.138;2022-12-07T03:30:19;9.27;;;6.10;;
20084;SDS011;10202;48.474;9.138;2022-12-07T03:35:32;10.20;;;6.53;;
20084;SDS011;10202;48.474;9.138;2022-12-07T03:38:24;10.93;;;6.30;;
20084;SDS011;10202;48.474;9.138;2022-12-07T03:41:14;8.57;;;6.13;;
20084;SDS011;10202;48.474;9.138;2022-12-07T03:43:47;8.13;;;5.80;;
20084;SDS011;10202;48.474;9.138;2022-12-07T03:49:10;8.40;;;5.13;;
20084;SDS011;10202;48.474;9.138;2022-12-07T03:57:37;6.80;;;4.97;;
20084;SDS011;10202;48.474;9.138;2022-12-07T04:00:05;6.70;;;5.43;;
20084;SDS011;10202;48.474;9.138;2022-12-07T04:02:37;6.60;;;4.87;;
20084;SDS011;10202;48.474;9.138;2022-12-07T04:05:03;8.10;;;5.33;;
20084;SDS011;10202;48.474;9.138;2022-12-07T04:07:31;6.57;;;4.67;;
20084;SDS011;10202;48.474;9.138;2022-12-07T04:10:01;6.17;;;4.50;;
20084;SDS011;10202;48.474;9.138;2022-12-07T04:12:32;7.50;;;5.23;;
20084;SDS011;10202;48.474;9.138;2022-12-07T04:14:57;7.87;;;4.60;;
20084;SDS011;10202;48.474;9.138;2022-12-07T04:17:23;7.00;;;5.10;;
20084;SDS011;10202;48.474;9.138;2022-12-07T04:19:50;7.40;;;5.10;;
20084;SDS011;10202;48.474;9.138;2022-12-07T04:22:16;6.63;;;4.67;;
20084;SDS011;10202;48.474;9.138;2022-12-07T04:24:49;7.97;;;5.30;;
20084;SDS011;10202;48.474;9.138;2022-12-07T04:27:15;6.77;;;4.97;;
20084;SDS011;10202;48.474;9.138;2022-12-07T04:29:42;7.70;;;5.10;;
20084;SDS011;10202;48.474;9.138;2022-12-07T04:32:10;7.33;;;5.10;;
20084;SDS011;10202;48.474;9.138;2022-12-07T04:34:38;8.43;;;5.40;;
20084;SDS011;10202;48.474;9.138;2022-12-07T04:37:08;8.30;;;6.03;;
20084;SDS011;10202;48.474;9.138;2022-12-07T04:39:39;7.20;;;5.40;;
20084;SDS011;10202;48.474;9.138;2022-12-07T04:42:07;9.90;;;6.00;;
20084;SDS011;10202;48.474;9.138;2022-12-07T04:44:32;8.03;;;5.50;;
20084;SDS011;10202;48.474;9.138;2022-12-07T04:47:03;7.20;;;5.20;;
20084;SDS011;10202;48.474;9.138;2022-12-07T04:49:29;7.40;;;5.00;;
20084;SDS011;10202;48.474;9.138;2022-12-07T04:51:59;8.40;;;5.07;;
20084;SDS011;10202;48.474;9.138;2022-12-07T04:54:29;9.30;;;5.03;;
20084;SDS011;10202;48.474;9.138;2022-12-07T04:56:55;8.47;;;5.63;;
20084;SDS011;10202;48.474;9.138;2022-12-07T04:59:24;7.03;;;5.00;;
20084;SDS011;10202;48.474;9.138;2022-12-07T05:01:49;8.30;;;5.23;;
20084;SDS011;10202;48.474;9.138;2022-12-07T05:04:17;7.13;;;5.00;;
20084;SDS011;10202;48.474;9.138;2022-12-07T05:06:52;8.37;;;4.90;;
20084;SDS011;10202;48.474;9.138;2022-12-07T05:09:20;7.57;;;4.80;;
20084;SDS011;10202;48.474;9.138;2022-12-07T05:11:48;6.60;;;4.63;;
20084;SDS011;10202;48.474;9.138;2022-12-07T05:14:19;6.83;;;4.50;;
20084;SDS011;10202;48.474;9.138;2022-12-07T05:16:51;6.13;;;4.60;;
20084;SDS011;10202;48.474;9.138;2022-12-07T05:19:18;4.70;;;3.80;;
20084;SDS011;10202;48.474;9.138;2022-12-07T05:21:44;5.10;;;4.03;;
20084;SDS011;10202;48.474;9.138;2022-12-07T05:24:13;5.07;;;3.90;;
20084;SDS011;10202;48.474;9.138;2022-12-07T05:26:41;6.27;;;4.33;;
20084;SDS011;10202;48.474;9.138;2022-12-07T05:29:15;5.43;;;4.27;;
20084;SDS011;10202;48.474;9.138;2022-12-07T05:31:46;5.77;;;4.30;;
20084;SDS011;10202;48.474;9.138;2022-12-07T05:34:21;5.73;;;4.20;;
20084;SDS011;10202;48.474;9.138;2022-12-07T05:36:49;5.17;;;3.87;;
20084;SDS011;10202;48.474;9.138;2022-12-07T05:39:15;5.83;;;4.23;;
20084;SDS011;10202;48.474;9.138;2022-12-07T05:41:43;7.67;;;4.97;;
20084;SDS011;10202;48.474;9.138;2022-12-07T05:44:27;9.33;;;6.37;;
20084;SDS011;10202;48.474;9.138;2022-12-07T05:46:55;10.67;;;6.90;;
20084;SDS011;10202;48.474;9.138;2022-12-07T05:49:22;8.87;;;5.40;;
20084;SDS011;10202;48.474;9.138;2022-12-07T05:51:50;8.53;;;5.37;;
20084;SDS011;10202;48.474;9.138;2022-12-07T05:54:18;9.53;;;5.43;;
20084;SDS011;10202;48.474;9.138;2022-12-07T05:56:46;11.93;;;6.00;;
20084;SDS011;10202;48.474;9.138;2022-12-07T05:59:11;8.03;;;6.00;;
20084;SDS011;10202;48.474;9.138;2022-12-07T06:01:53;8.40;;;5.67;;
20084;SDS011;10202;48.474;9.138;2022-12-07T06:04:36;14.30;;;7.07;;
20084;SDS011;10202;48.474;9.138;2022-12-07T06:07:09;9.57;;;6.50;;
20084;SDS011;10202;48.474;9.138;2022-12-07T06:09:42;8.57;;;5.17;;
20084;SDS011;10202;48.474;9.138;2022-12-07T06:12:09;7.53;;;4.80;;
20084;SDS011;10202;48.474;9.138;2022-12-07T06:14:54;8.97;;;5.10;;
20084;SDS011;10202;48.474;9.138;2022-12-07T06:17:22;8.50;;;5.10;;
20084;SDS011;10202;48.474;9.138;2022-12-07T06:19:51;6.57;;;5.00;;
20084;SDS011;10202;48.474;9.138;2022-12-07T06:22:21;6.63;;;4.57;;
20084;SDS011;10202;48.474;9.138;2022-12-07T06:24:46;9.77;;;6.70;;
20084;SDS011;10202;48.474;9.138;2022-12-07T06:27:17;31.53;;;14.40;;
20084;SDS011;10202;48.474;9.138;2022-12-07T06:29:46;24.63;;;11.47;;
20084;SDS011;10202;48.474;9.138;2022-12-07T06:32:14;26.43;;;11.60;;
20084;SDS011;10202;48.474;9.138;2022-12-07T06:34:39;27.07;;;10.63;;
20084;SDS011;10202;48.474;9.138;2022-12-07T06:37:05;29.03;;;12.57;;
20084;SDS011;10202;48.474;9.138;2022-12-07T06:39:33;12.27;;;6.63;;
20084;SDS011;10202;48.474;9.138;2022-12-07T06:42:03;7.33;;;4.40;;
20084;SDS011;10202;48.474;9.138;2022-12-07T06:44:29;6.07;;;3.90;;
20084;SDS011;10202;48.474;9.138;2022-12-07T06:46:57;3.73;;;3.17;;
20084;SDS011;10202;48.474;9.138;2022-12-07T06:49:28;23.47;;;9.57;;
20084;SDS011;10202;48.474;9.138;2022-12-07T06:51:53;5.33;;;3.70;;
20084;SDS011;10202;48.474;9.138;2022-12-07T06:54:21;4.70;;;3.60;;
20084;SDS011;10202;48.474;9.138;2022-12-07T06:56:47;4.43;;;3.50;;
20084;SDS011;10202;48.474;9.138;2022-12-07T06:59:17;5.53;;;4.03;;
20084;SDS011;10202;48.474;9.138;2022-12-07T07:01:43;7.03;;;4.97;;
20084;SDS011;10202;48.474;9.138;2022-12-07T07:04:13;11.27;;;5.27;;
20084;SDS011;10202;48.474;9.138;2022-12-07T07:06:41;10.17;;;6.47;;
20084;SDS011;10202;48.474;9.138;2022-12-07T07:09:07;12.27;;;6.53;;
20084;SDS011;10202;48.474;9.138;2022-12-07T07:11:35;10.30;;;6.37;;
20084;SDS011;10202;48.474;9.138;2022-12-07T07:14:02;10.93;;;6.53;;
20084;SDS011;10202;48.474;9.138;2022-12-07T07:16:33;9.87;;;6.53;;
20084;SDS011;10202;48.474;9.138;2022-12-07T07:18:59;10.20;;;6.77;;
20084;SDS011;10202;48.474;9.138;2022-12-07T07:21:24;12.13;;;7.37;;
20084;SDS011;10202;48.474;9.138;2022-12-07T07:23:52;10.63;;;7.20;;
20084;SDS011;10202;48.474;9.138;2022-12-07T07:26:18;11.03;;;7.13;;
20084;SDS011;10202;48.474;9.138;2022-12-07T07:28:51;11.20;;;6.80;;
20084;SDS011;10202;48.474;9.138;2022-12-07T07:31:21;11.83;;;7.50;;
20084;SDS011;10202;48.474;9.138;2022-12-07T07:33:49;10.47;;;6.97;;
20084;SDS011;10202;48.474;9.138;2022-12-07T07:36:17;11.60;;;7.30;;
20084;SDS011;10202;48.474;9.138;2022-12-07T07:38:44;12.10;;;7.23;;
20084;SDS011;10202;48.474;9.138;2022-12-07T07:41:12;14.53;;;8.27;;
20084;SDS011;10202;48.474;9.138;2022-12-07T07:43:44;14.47;;;8.57;;
20084;SDS011;10202;48.474;9.138;2022-12-07T07:46:12;13.80;;;8.40;;
20084;SDS011;10202;48.474;9.138;2022-12-07T07:48:42;12.87;;;8.03;;
20084;SDS011;10202;48.474;9.138;2022-12-07T07:51:07;11.07;;;7.90;;
20084;SDS011;10202;48.474;9.138;2022-12-07T07:53:33;11.63;;;7.60;;
20084;SDS011;10202;48.474;9.138;2022-12-07T07:56:01;12.27;;;7.30;;
20084;SDS011;10202;48.474;9.138;2022-12-07T07:58:27;11.30;;;6.87;;
20084;SDS011;10202;48.474;9.138;2022-12-07T08:00:53;10.93;;;7.27;;
20084;SDS011;10202;48.474;9.138;2022-12-07T08:03:23;9.50;;;6.60;;
20084;SDS011;10202;48.474;9.138;2022-12-07T08:05:51;9.80;;;6.57;;
20084;SDS011;10202;48.474;9.138;2022-12-07T08:08:22;10.47;;;7.00;;
20084;SDS011;10202;48.474;9.138;2022-12-07T08:10:50;10.30;;;6.80;;
20084;SDS011;10202;48.474;9.138;2022-12-07T08:13:20;9.60;;;6.70;;
20084;SDS011;10202;48.474;9.138;2022-12-07T08:15:51;12.00;;;6.97;;
20084;SDS011;10202;48.474;9.138;2022-12-07T08:18:19;11.33;;;6.70;;
20084;SDS011;10202;48.474;9.138;2022-12-07T08:20:44;10.83;;;6.47;;
20084;SDS011;10202;48.474;9.138;2022-12-07T08:23:12;10.27;;;6.50;;
20084;SDS011;10202;48.474;9.138;2022-12-07T08:25:38;10.23;;;6.43;;
20084;SDS011;10202;48.474;9.138;2022-12-07T08:28:04;11.17;;;7.07;;
20084;SDS011;10202;48.474;9.138;2022-12-07T08:30:33;10.53;;;7.07;;
20084;SDS011;10202;48.474;9.138;2022-12-07T08:33:06;10.57;;;6.90;;
20084;SDS011;10202;48.474;9.138;2022-12-07T08:35:32;9.40;;;6.80;;
20084;SDS011;10202;48.474;9.138;2022-12-07T08:38:03;10.53;;;6.60;;
20084;SDS011;10202;48.474;9.138;2022-12-07T08:40:31;11.47;;;7.40;;
20084;SDS011;10202;48.474;9.138;2022-12-07T08:43:04;11.37;;;7.60;;
20084;SDS011;10202;48.474;9.138;2022-12-07T08:45:32;11.07;;;7.37;;
20084;SDS011;10202;48.474;9.138;2022-12-07T08:48:07;10.63;;;6.93;;
20084;SDS011;10202;48.474;9.138;2022-12-07T08:50:37;11.43;;;7.83;;
20084;SDS011;10202;48.474;9.138;2022-12-07T08:53:06;15.17;;;7.60;;
20084;SDS011;10202;48.474;9.138;2022-12-07T08:55:37;11.23;;;7.60;;
20084;SDS011;10202;48.474;9.138;2022-12-07T08:58:02;10.33;;;6.63;;
20084;SDS011;10202;48.474;9.138;2022-12-07T09:00:28;10.60;;;7.07;;
20084;SDS011;10202;48.474;9.138;2022-12-07T09:02:58;10.67;;;6.63;;
20084;SDS011;10202;48.474;9.138;2022-12-07T09:05:24;11.90;;;6.90;;
20084;SDS011;10202;48.474;9.138;2022-12-07T09:07:51;9.13;;;6.63;;
20084;SDS011;10202;48.474;9.138;2022-12-07T09:10:23;11.37;;;6.93;;
20084;SDS011;10202;48.474;9.138;2022-12-07T09:12:53;10.67;;;6.80;;
20084;SDS011;10202;48.474;9.138;2022-12-07T09:15:21;12.13;;;7.40;;
20084;SDS011;10202;48.474;9.138;2022-12-07T09:17:49;10.47;;;6.73;;
20084;SDS011;10202;48.474;9.138;2022-12-07T09:20:17;12.43;;;6.93;;
20084;SDS011;10202;48.474;9.138;2022-12-07T09:22:43;10.80;;;7.07;;
20084;SDS011;10202;48.474;9.138;2022-12-07T09:25:12;11.80;;;7.03;;
20084;SDS011;10202;48.474;9.138;2022-12-07T09:27:39;12.70;;;7.60;;
20084;SDS011;10202;48.474;9.138;2022-12-07T09:30:06;11.63;;;7.20;;
20084;SDS011;10202;48.474;9.138;2022-12-07T09:32:32;11.83;;;7.40;;
20084;SDS011;10202;48.474;9.138;2022-12-07T09:34:57;14.33;;;9.10;;
20084;SDS011;10202;48.474;9.138;2022-12-07T09:37:25;9.77;;;7.17;;
20084;SDS011;10202;48.474;9.138;2022-12-07T09:39:53;11.20;;;7.57;;
20084;SDS011;10202;48.474;9.138;2022-12-07T09:45:05;10.37;;;6.93;;
20084;SDS011;10202;48.474;9.138;2022-12-07T09:47:35;9.10;;;6.30;;
20084;SDS011;10202;48.474;9.138;2022-12-07T09:50:05;9.60;;;6.23;;
20084;SDS011;10202;48.474;9.138;2022-12-07T09:52:42;9.40;;;6.20;;
20084;SDS011;10202;48.474;9.138;2022-12-07T09:55:16;10.60;;;6.93;;
20084;SDS011;10202;48.474;9.138;2022-12-07T09:58:05;10.13;;;6.50;;
20084;SDS011;10202;48.474;9.138;2022-12-07T10:00:33;8.80;;;6.27;;
20084;SDS011;10202;48.474;9.138;2022-12-07T10:02:59;9.50;;;6.47;;
20084;SDS011;10202;48.474;9.138;2022-12-07T10:05:35;10.00;;;6.60;;
20084;SDS011;10202;48.474;9.138;2022-12-07T10:08:14;12.97;;;6.63;;
20084;SDS011;10202;48.474;9.138;2022-12-07T10:10:50;9.77;;;6.20;;
20084;SDS011;10202;48.474;9.138;2022-12-07T10:16:30;8.07;;;5.60;;
20084;SDS011;10202;48.474;9.138;2022-12-07T10:24:46;8.63;;;5.83;;
20084;SDS011;10202;48.474;9.138;2022-12-07T10:27:17;7.70;;;5.87;;
20084;SDS011;10202;48.474;9.138;2022-12-07T10:29:50;8.23;;;6.00;;
20084;SDS011;10202;48.474;9.138;2022-12-07T10:32:26;7.83;;;5.23;;
20084;SDS011;10202;48.474;9.138;2022-12-07T10:37:48;8.77;;;5.68;;
20084;SDS011;10202;48.474;9.138;2022-12-07T10:40:31;8.87;;;5.70;;
20084;SDS011;10202;48.474;9.138;2022-12-07T10:57:19;7.17;;;4.90;;
20084;SDS011;10202;48.474;9.138;2022-12-07T11:05:48;7.90;;;4.65;;
20084;SDS011;10202;48.474;9.138;2022-12-07T11:16:59;6.23;;;4.43;;
20084;SDS011;10202;48.474;9.138;2022-12-07T11:30:13;8.75;;;5.20;;
20084;SDS011;10202;48.474;9.138;2022-12-07T11:33:15;6.83;;;4.40;;
20084;SDS011;10202;48.474;9.138;2022-12-07T11:35:47;5.75;;;4.13;;
20084;SDS011;10202;48.474;9.138;2022-12-07T11:38:17;5.70;;;4.25;;
20084;SDS011;10202;48.474;9.138;2022-12-07T11:41:10;6.35;;;4.53;;
20084;SDS011;10202;48.474;9.138;2022-12-07T11:46:15;6.85;;;4.28;;
20084;SDS011;10202;48.474;9.138;2022-12-07T11:51:40;5.78;;;4.35;;
20084;SDS011;10202;48.474;9.138;2022-12-07T11:56:54;8.52;;;4.95;;
20084;SDS011;10202;48.474;9.138;2022-12-07T11:59:27;7.63;;;4.05;;
20084;SDS011;10202;48.474;9.138;2022-12-07T12:07:24;6.57;;;4.50;;
20084;SDS011;10202;48.474;9.138;2022-12-07T12:21:28;5.82;;;4.15;;
20084;SDS011;10202;48.474;9.138;2022-12-07T12:24:18;6.38;;;4.03;;
20084;SDS011;10202;48.474;9.138;2022-12-07T12:26:54;5.20;;;3.88;;
20084;SDS011;10202;48.474;9.138;2022-12-07T12:32:11;6.72;;;4.78;;
20084;SDS011;10202;48.474;9.138;2022-12-07T12:45:20;4.75;;;3.63;;
20084;SDS011;10202;48.474;9.138;2022-12-07T12:48:01;7.60;;;3.72;;
20084;SDS011;10202;48.474;9.138;2022-12-07T12:54:40;5.45;;;3.65;;
20084;SDS011;10202;48.474;9.138;2022-12-07T12:57:36;5.53;;;3.90;;
20084;SDS011;10202;48.474;9.138;2022-12-07T13:00:14;5.80;;;3.85;;
20084;SDS011;10202;48.474;9.138;2022-12-07T13:05:27;6.07;;;4.25;;
20084;SDS011;10202;48.474;9.138;2022-12-07T13:08:12;6.10;;;4.03;;
20084;SDS011;10202;48.474;9.138;2022-12-07T13:10:46;6.55;;;4.15;;
20084;SDS011;10202;48.474;9.138;2022-12-07T13:23:33;5.60;;;4.18;;
20084;SDS011;10202;48.474;9.138;2022-12-07T13:40:12;6.78;;;4.10;;
20084;SDS011;10202;48.474;9.138;2022-12-07T13:42:46;10.32;;;3.85;;
20084;SDS011;10202;48.474;9.138;2022-12-07T13:45:28;6.68;;;4.53;;
20084;SDS011;10202;48.474;9.138;2022-12-07T13:48:21;5.18;;;4.00;;
20084;SDS011;10202;48.474;9.138;2022-12-07T13:51:19;5.78;;;4.18;;
20084;SDS011;10202;48.474;9.138;2022-12-07T13:53:54;5.82;;;4.10;;
20084;SDS011;10202;48.474;9.138;2022-12-07T13:56:35;9.60;;;6.22;;
20084;SDS011;10202;48.474;9.138;2022-12-07T13:59:14;9.23;;;5.82;;
20084;SDS011;10202;48.474;9.138;2022-12-07T14:01:47;10.10;;;4.38;;
20084;SDS011;10202;48.474;9.138;2022-12-07T14:07:18;8.82;;;6.10;;
20084;SDS011;10202;48.474;9.138;2022-12-07T14:10:00;6.25;;;4.78;;
20084;SDS011;10202;48.474;9.138;2022-12-07T14:12:32;5.72;;;4.03;;
20084;SDS011;10202;48.474;9.138;2022-12-07T14:14:59;7.35;;;3.88;;
20084;SDS011;10202;48.474;9.138;2022-12-07T14:17:28;7.15;;;4.15;;
20084;SDS011;10202;48.474;9.138;2022-12-07T14:19:59;10.82;;;4.53;;
20084;SDS011;10202;48.474;9.138;2022-12-07T14:25:20;4.95;;;3.95;;
20084;SDS011;10202;48.474;9.138;2022-12-07T14:27:59;7.05;;;4.25;;
20084;SDS011;10202;48.474;9.138;2022-12-07T14:30:30;8.02;;;4.80;;
20084;SDS011;10202;48.474;9.138;2022-12-07T14:33:00;6.43;;;4.40;;
20084;SDS011;10202;48.474;9.138;2022-12-07T14:35:30;8.40;;;5.05;;
20084;SDS011;10202;48.474;9.138;2022-12-07T14:37:57;8.30;;;5.47;;
20084;SDS011;10202;48.474;9.138;2022-12-07T14:40:28;6.65;;;4.95;;
20084;SDS011;10202;48.474;9.138;2022-12-07T14:43:02;6.03;;;4.15;;
20084;SDS011;10202;48.474;9.138;2022-12-07T14:45:33;5.88;;;4.45;;
20084;SDS011;10202;48.474;9.138;2022-12-07T14:48:03;6.57;;;4.28;;
20084;SDS011;10202;48.474;9.138;2022-12-07T14:50:29;9.67;;;5.97;;
20084;SDS011;10202;48.474;9.138;2022-12-07T14:52:58;6.53;;;3.92;;
20084;SDS011;10202;48.474;9.138;2022-12-07T14:55:27;9.65;;;3.92;;
20084;SDS011;10202;48.474;9.138;2022-12-07T14:57:57;33.00;;;5.85;;
20084;SDS011;10202;48.474;9.138;2022-12-07T15:00:24;6.82;;;3.80;;
20084;SDS011;10202;48.474;9.138;2022-12-07T15:02:52;6.00;;;3.65;;
20084;SDS011;10202;48.474;9.138;2022-12-07T15:05:21;7.03;;;4.50;;
20084;SDS011;10202;48.474;9.138;2022-12-07T15:07:53;8.63;;;5.80;;
20084;SDS011;10202;48.474;9.138;2022-12-07T15:10:22;10.38;;;6.80;;
20084;SDS011;10202;48.474;9.138;2022-12-07T15:12:58;12.02;;;6.68;;
20084;SDS011;10202;48.474;9.138;2022-12-07T15:15:48;11.82;;;7.78;;
20084;SDS011;10202;48.474;9.138;2022-12-07T15:18:19;12.10;;;7.38;;
20084;SDS011;10202;48.474;9.138;2022-12-07T15:20:46;12.87;;;8.00;;
20084;SDS011;10202;48.474;9.138;2022-12-07T15:23:12;13.20;;;8.37;;
20084;SDS011;10202;48.474;9.138;2022-12-07T15:25:44;8.48;;;5.50;;
20084;SDS011;10202;48.474;9.138;2022-12-07T15:28:14;9.02;;;5.60;;
20084;SDS011;10202;48.474;9.138;2022-12-07T15:30:43;10.82;;;5.82;;
20084;SDS011;10202;48.474;9.138;2022-12-07T15:33:12;9.48;;;6.68;;
20084;SDS011;10202;48.474;9.138;2022-12-07T15:35:40;8.85;;;6.38;;
20084;SDS011;10202;48.474;9.138;2022-12-07T15:38:09;8.50;;;5.47;;
20084;SDS011;10202;48.474;9.138;2022-12-07T15:40:35;9.43;;;5.55;;
20084;SDS011;10202;48.474;9.138;2022-12-07T15:43:07;7.68;;;5.40;;
20084;SDS011;10202;48.474;9.138;2022-12-07T15:45:56;13.75;;;5.88;;
20084;SDS011;10202;48.474;9.138;2022-12-07T15:48:21;11.45;;;6.70;;
20084;SDS011;10202;48.474;9.138;2022-12-07T15:50:52;14.23;;;5.82;;
20084;SDS011;10202;48.474;9.138;2022-12-07T15:53:18;11.73;;;6.00;;
20084;SDS011;10202;48.474;9.138;2022-12-07T15:55:46;10.98;;;5.68;;
20084;SDS011;10202;48.474;9.138;2022-12-07T15:58:13;11.80;;;5.72;;
20084;SDS011;10202;48.474;9.138;2022-12-07T16:00:44;9.25;;;5.38;;
20084;SDS011;10202;48.474;9.138;2022-12-07T16:03:13;10.13;;;5.75;;
20084;SDS011;10202;48.474;9.138;2022-12-07T16:05:39;9.80;;;5.72;;
20084;SDS011;10202;48.474;9.138;2022-12-07T16:08:12;9.43;;;5.90;;
20084;SDS011;10202;48.474;9.138;2022-12-07T16:10:42;12.52;;;6.25;;
20084;SDS011;10202;48.474;9.138;2022-12-07T16:13:11;10.15;;;5.65;;
20084;SDS011;10202;48.474;9.138;2022-12-07T16:15:43;10.15;;;6.60;;
20084;SDS011;10202;48.474;9.138;2022-12-07T16:18:10;12.33;;;7.30;;
20084;SDS011;10202;48.474;9.138;2022-12-07T16:20:38;13.60;;;7.45;;
20084;SDS011;10202;48.474;9.138;2022-12-07T16:23:14;12.80;;;7.07;;
20084;SDS011;10202;48.474;9.138;2022-12-07T16:25:41;10.43;;;4.80;;
20084;SDS011;10202;48.474;9.138;2022-12-07T16:28:11;11.95;;;5.10;;
20084;SDS011;10202;48.474;9.138;2022-12-07T16:30:41;9.10;;;4.50;;
20084;SDS011;10202;48.474;9.138;2022-12-07T16:33:07;7.00;;;4.40;;
20084;SDS011;10202;48.474;9.138;2022-12-07T16:35:37;10.50;;;4.37;;
20084;SDS011;10202;48.474;9.138;2022-12-07T16:38:08;8.93;;;5.70;;
20084;SDS011;10202;48.474;9.138;2022-12-07T16:40:36;10.18;;;6.07;;
20084;SDS011;10202;48.474;9.138;2022-12-07T16:43:03;11.07;;;7.23;;
20084;SDS011;10202;48.474;9.138;2022-12-07T16:45:34;25.05;;;13.18;;
20084;SDS011;10202;48.474;9.138;2022-12-07T16:48:06;28.27;;;12.37;;
20084;SDS011;10202;48.474;9.138;2022-12-07T16:50:34;32.63;;;21.47;;
20084;SDS011;10202;48.474;9.138;2022-12-07T16:53:07;26.37;;;14.07;;
20084;SDS011;10202;48.474;9.138;2022-12-07T16:55:40;15.77;;;8.33;;
20084;SDS011;10202;48.474;9.138;2022-12-07T16:58:11;10.63;;;6.93;;
20084;SDS011;10202;48.474;9.138;2022-12-07T17:00:40;10.68;;;6.18;;
20084;SDS011;10202;48.474;9.138;2022-12-07T17:03:16;9.80;;;5.63;;
20084;SDS011;10202;48.474;9.138;2022-12-07T17:05:43;10.45;;;7.22;;
20084;SDS011;10202;48.474;9.138;2022-12-07T17:08:16;9.30;;;6.80;;
20084;SDS011;10202;48.474;9.138;2022-12-07T17:10:44;14.33;;;7.17;;
20084;SDS011;10202;48.474;9.138;2022-12-07T17:13:12;10.63;;;5.90;;
20084;SDS011;10202;48.474;9.138;2022-12-07T17:16:01;10.00;;;6.40;;
20084;SDS011;10202;48.474;9.138;2022-12-07T17:18:34;7.27;;;5.73;;
20084;SDS011;10202;48.474;9.138;2022-12-07T17:21:07;13.87;;;7.83;;
20084;SDS011;10202;48.474;9.138;2022-12-07T17:23:34;14.60;;;9.00;;
20084;SDS011;10202;48.474;9.138;2022-12-07T17:28:36;18.52;;;11.25;;
20084;SDS011;10202;48.474;9.138;2022-12-07T17:31:07;15.57;;;9.73;;
20084;SDS011;10202;48.474;9.138;2022-12-07T17:33:36;13.23;;;8.32;;
20084;SDS011;10202;48.474;9.138;2022-12-07T17:36:11;10.73;;;7.07;;
20084;SDS011;10202;48.474;9.138;2022-12-07T17:38:45;11.23;;;6.30;;
20084;SDS011;10202;48.474;9.138;2022-12-07T17:41:15;11.97;;;8.23;;
20084;SDS011;10202;48.474;9.138;2022-12-07T17:44:09;9.97;;;6.50;;
20084;SDS011;10202;48.474;9.138;2022-12-07T17:46:46;9.03;;;5.47;;
20084;SDS011;10202;48.474;9.138;2022-12-07T17:49:14;7.83;;;5.73;;